createdAt,value
2019-05-19T00:02:00.038Z,99.84
2019-05-19T00:04:30.708Z,100.00
2019-05-19T00:07:01.341Z,100.00
2019-05-19T00:09:31.903Z,100.00
2019-05-19T00:12:04.183Z,99.89
2019-05-19T00:14:34.931Z,100.00
2019-05-19T00:17:10.667Z,100.00
2019-05-19T00:19:42.095Z,100.00
2019-05-19T00:22:12.937Z,100.00
2019-05-19T00:24:43.360Z,100.00
2019-05-19T00:27:14.478Z,100.00
2019-05-19T00:29:45.693Z,100.00
2019-05-19T00:32:16.146Z,100.00
2019-05-19T00:34:46.599Z,99.53
2019-05-19T00:37:16.999Z,99.90
2019-05-19T00:39:49.148Z,100.00
2019-05-19T00:42:19.784Z,100.00
2019-05-19T00:44:53.814Z,100.00
2019-05-19T00:47:24.336Z,100.00
2019-05-19T00:49:54.762Z,100.00
2019-05-19T00:52:25.312Z,100.00
2019-05-19T00:54:55.825Z,100.00
2019-05-19T00:57:45.302Z,100.00
2019-05-19T01:00:15.833Z,100.00
2019-05-19T01:02:46.237Z,100.00
2019-05-19T01:05:16.669Z,100.00
2019-05-19T01:07:47.303Z,100.00
2019-05-19T01:10:18.215Z,100.00
2019-05-19T01:12:48.644Z,99.89
2019-05-19T01:15:19.067Z,100.00
2019-05-19T01:17:49.633Z,100.00
2019-05-19T01:20:22.315Z,100.00
2019-05-19T01:22:52.733Z,100.00
2019-05-19T01:25:23.687Z,100.00
2019-05-19T01:27:54.119Z,100.00
2019-05-19T01:30:24.523Z,100.00
2019-05-19T01:32:54.945Z,99.99
2019-05-19T01:35:26.377Z,99.94
2019-05-19T01:38:02.982Z,99.33
2019-05-19T01:40:33.380Z,99.14
2019-05-19T01:43:54.333Z,99.29
2019-05-19T01:46:24.871Z,99.41
2019-05-19T01:48:55.853Z,99.30
2019-05-19T01:51:26.300Z,99.32
2019-05-19T01:53:57.212Z,99.32
2019-05-19T01:56:29.212Z,99.55
2019-05-19T01:58:59.603Z,100.00
2019-05-19T02:01:30.035Z,100.00
2019-05-19T02:04:01.083Z,100.00
2019-05-19T02:06:33.360Z,100.00
2019-05-19T02:09:05.140Z,100.00
2019-05-19T02:11:35.624Z,100.00
2019-05-19T02:14:06.581Z,100.00
2019-05-19T02:16:37.079Z,100.00
2019-05-19T02:19:19.929Z,100.00
2019-05-19T02:21:50.387Z,100.00
2019-05-19T02:24:20.834Z,100.00
2019-05-19T02:26:51.283Z,100.00
2019-05-19T02:29:22.251Z,100.00
2019-05-19T02:31:52.697Z,100.00
2019-05-19T02:34:23.146Z,100.00
2019-05-19T02:36:53.574Z,100.00
2019-05-19T02:39:36.937Z,100.00
2019-05-19T02:42:07.333Z,100.00
2019-05-19T02:44:40.497Z,100.00
2019-05-19T02:47:11.177Z,100.00
2019-05-19T02:52:30.988Z,100.00
2019-05-19T02:55:01.524Z,100.00
2019-05-19T02:57:32.824Z,100.00
2019-05-19T03:00:03.485Z,100.00
2019-05-19T03:02:34.114Z,100.00
2019-05-19T03:05:07.011Z,100.00
2019-05-19T03:07:37.920Z,100.00
2019-05-19T03:10:08.444Z,100.00
2019-05-19T03:12:39.006Z,100.00
2019-05-19T03:15:09.448Z,100.00
2019-05-19T03:17:40.096Z,100.00
2019-05-19T03:20:11.054Z,100.00
2019-05-19T03:22:41.573Z,100.00
2019-05-19T03:25:12.641Z,100.00
2019-05-19T03:27:43.108Z,100.00
2019-05-19T03:30:31.289Z,100.00
2019-05-19T03:33:02.993Z,100.00
2019-05-19T03:35:33.723Z,100.00
2019-05-19T03:38:04.246Z,100.00
2019-05-19T03:40:34.655Z,100.00
2019-05-19T03:43:05.125Z,100.00
2019-05-19T03:45:35.786Z,100.00
2019-05-19T03:48:06.547Z,100.00
2019-05-19T03:50:36.963Z,100.00
2019-05-19T03:53:07.717Z,100.00
2019-05-19T03:55:38.251Z,100.00
2019-05-19T03:58:08.649Z,100.00
2019-05-19T04:00:40.414Z,100.00
2019-05-19T04:03:10.861Z,100.00
2019-05-19T04:05:41.345Z,100.00
2019-05-19T04:08:12.086Z,100.00
2019-05-19T04:10:42.607Z,100.00
2019-05-19T04:13:13.067Z,100.00
2019-05-19T04:15:43.859Z,100.00
2019-05-19T04:18:17.663Z,100.00
2019-05-19T04:20:47.749Z,100.00
2019-05-19T04:23:18.181Z,100.00
2019-05-19T04:25:48.668Z,100.00
2019-05-19T04:28:19.134Z,100.00
2019-05-19T04:30:49.585Z,100.00
2019-05-19T04:33:20.030Z,100.00
2019-05-19T04:35:50.464Z,100.00
2019-05-19T04:38:21.116Z,100.00
2019-05-19T04:41:01.901Z,100.00
2019-05-19T04:43:32.361Z,100.00
2019-05-19T04:46:04.164Z,100.00
2019-05-19T04:48:34.556Z,100.00
2019-05-19T04:51:04.958Z,100.00
2019-05-19T04:53:37.518Z,100.00
2019-05-19T04:56:19.874Z,100.00
2019-05-19T04:58:50.070Z,100.00
2019-05-19T05:01:20.486Z,100.00
2019-05-19T05:03:50.955Z,100.00
2019-05-19T05:06:21.566Z,100.00
2019-05-19T05:08:52.029Z,100.00
2019-05-19T05:11:22.741Z,100.00
2019-05-19T05:13:53.171Z,100.00
2019-05-19T05:16:23.627Z,100.00
2019-05-19T05:18:54.057Z,100.00
2019-05-19T05:21:24.687Z,100.00
2019-05-19T05:24:00.138Z,100.00
2019-05-19T05:26:30.624Z,99.06
2019-05-19T05:29:01.058Z,99.93
2019-05-19T05:31:31.475Z,99.45
2019-05-19T05:34:02.177Z,95.71
2019-05-19T05:36:33.075Z,96.49
2019-05-19T05:39:04.982Z,93.45
2019-05-19T05:41:35.457Z,93.82
2019-05-19T05:44:06.080Z,92.99
2019-05-19T05:46:36.748Z,91.64
2019-05-19T05:49:07.262Z,86.58
2019-05-19T05:51:40.291Z,89.83
2019-05-19T05:54:11.095Z,89.94
2019-05-19T05:56:42.103Z,90.11
2019-05-19T05:59:15.841Z,87.33
2019-05-19T06:01:46.306Z,84.09
2019-05-19T06:04:17.559Z,81.64
2019-05-19T06:06:48.123Z,79.35
2019-05-19T06:09:19.094Z,80.42
2019-05-19T06:11:50.337Z,78.83
2019-05-19T06:14:21.110Z,77.24
2019-05-19T06:16:52.086Z,75.75
2019-05-19T06:19:35.203Z,75.08
2019-05-19T06:22:08.352Z,77.42
2019-05-19T06:24:45.064Z,72.76
2019-05-19T06:27:14.321Z,73.45
2019-05-19T06:29:44.800Z,73.11
2019-05-19T06:32:38.634Z,70.88
2019-05-19T06:35:09.090Z,72.80
2019-05-19T06:37:39.581Z,73.47
2019-05-19T06:40:12.881Z,73.52
2019-05-19T06:42:43.369Z,72.00
2019-05-19T06:45:17.213Z,69.19
2019-05-19T06:47:49.675Z,70.02
2019-05-19T06:50:20.230Z,68.55
2019-05-19T06:52:50.796Z,68.15
2019-05-19T06:55:21.260Z,68.56
2019-05-19T06:57:53.187Z,67.37
2019-05-19T07:00:23.696Z,68.34
2019-05-19T07:03:00.230Z,68.06
2019-05-19T07:05:31.707Z,69.96
2019-05-19T07:08:08.109Z,67.64
2019-05-19T07:10:38.841Z,69.24
2019-05-19T07:13:09.504Z,68.02
2019-05-19T07:15:39.984Z,63.59
2019-05-19T07:18:10.463Z,62.78
2019-05-19T07:20:41.066Z,62.83
2019-05-19T07:23:11.962Z,63.37
2019-05-19T07:25:42.937Z,62.74
2019-05-19T07:28:17.595Z,61.70
2019-05-19T07:30:48.120Z,61.22
2019-05-19T07:33:18.915Z,62.80
2019-05-19T07:35:50.764Z,60.59
2019-05-19T07:38:21.229Z,59.34
2019-05-19T07:40:55.217Z,59.20
2019-05-19T07:43:28.407Z,58.23
2019-05-19T07:46:02.094Z,60.57
2019-05-19T07:48:34.224Z,57.51
2019-05-19T07:51:08.192Z,56.02
2019-05-19T07:53:42.878Z,56.51
2019-05-19T07:56:14.738Z,56.84
2019-05-19T07:58:45.267Z,56.54
2019-05-19T08:01:20.047Z,56.24
2019-05-19T08:03:50.579Z,58.78
2019-05-19T08:06:28.671Z,56.05
2019-05-19T08:09:02.127Z,58.18
2019-05-19T08:11:33.650Z,58.08
2019-05-19T08:14:09.751Z,57.36
2019-05-19T08:16:40.237Z,57.26
2019-05-19T08:19:10.690Z,56.53
2019-05-19T08:21:41.155Z,54.96
2019-05-19T08:24:11.642Z,54.83
2019-05-19T08:26:42.369Z,55.09
2019-05-19T08:29:14.485Z,56.11
2019-05-19T08:31:50.230Z,57.10
2019-05-19T08:34:21.090Z,56.12
2019-05-19T08:36:57.290Z,57.09
2019-05-19T08:39:28.888Z,56.93
2019-05-19T08:41:59.361Z,56.62
2019-05-19T08:44:29.762Z,57.05
2019-05-19T08:47:05.130Z,56.62
2019-05-19T08:49:39.457Z,56.20
2019-05-19T08:52:13.672Z,56.04
2019-05-19T08:54:49.609Z,55.60
2019-05-19T08:57:20.346Z,56.74
2019-05-19T08:59:51.164Z,55.79
2019-05-19T09:02:24.101Z,54.65
2019-05-19T09:04:54.913Z,54.56
2019-05-19T09:07:25.391Z,54.88
2019-05-19T09:09:56.042Z,56.32
2019-05-19T09:12:26.836Z,55.90
2019-05-19T09:15:06.007Z,55.44
2019-05-19T09:17:39.311Z,53.89
2019-05-19T09:20:10.060Z,54.18
2019-05-19T09:22:42.236Z,54.37
2019-05-19T09:25:12.666Z,54.39
2019-05-19T09:27:43.419Z,54.02
2019-05-19T09:30:15.185Z,53.52
2019-05-19T09:32:45.745Z,51.65
2019-05-19T09:35:16.232Z,53.30
2019-05-19T09:37:47.118Z,51.21
2019-05-19T09:40:19.106Z,50.96
2019-05-19T09:42:55.117Z,50.25
2019-05-19T09:45:25.186Z,51.05
2019-05-19T09:47:57.906Z,50.62
2019-05-19T09:50:30.627Z,49.18
2019-05-19T09:53:05.778Z,47.33
2019-05-19T09:55:38.859Z,46.85
2019-05-19T09:58:09.346Z,47.28
2019-05-19T10:00:45.670Z,45.71
2019-05-19T10:03:19.787Z,43.45
2019-05-19T10:05:57.939Z,44.53
2019-05-19T10:08:55.880Z,45.38
2019-05-19T10:12:00.502Z,48.87
2019-05-19T10:14:30.963Z,51.33
2019-05-19T10:17:01.653Z,46.06
2019-05-19T10:19:34.795Z,46.08
2019-05-19T10:22:05.399Z,45.71
2019-05-19T10:24:57.820Z,47.93
2019-05-19T10:27:21.858Z,46.28
2019-05-19T10:29:54.095Z,43.54
2019-05-19T10:32:26.318Z,42.03
2019-05-19T10:34:57.179Z,42.93
2019-05-19T10:37:28.283Z,41.59
2019-05-19T10:39:59.495Z,40.65
2019-05-19T10:42:30.242Z,42.15
2019-05-19T10:45:00.725Z,40.28
2019-05-19T10:47:31.115Z,41.93
2019-05-19T10:50:01.622Z,42.23
2019-05-19T10:52:34.352Z,38.70
2019-05-19T10:55:05.084Z,41.14
2019-05-19T10:57:37.166Z,39.47
2019-05-19T11:00:08.739Z,39.55
2019-05-19T11:02:42.702Z,40.89
2019-05-19T11:05:13.413Z,38.08
2019-05-19T11:07:53.615Z,39.53
2019-05-19T11:10:24.165Z,35.71
2019-05-19T11:12:54.729Z,37.54
2019-05-19T11:15:28.671Z,37.17
2019-05-19T11:18:07.885Z,37.07
2019-05-19T11:20:41.765Z,37.59
2019-05-19T11:23:24.015Z,37.18
2019-05-19T11:25:55.067Z,36.78
2019-05-19T11:28:25.631Z,35.36
2019-05-19T11:30:59.794Z,36.81
2019-05-19T11:33:29.239Z,39.48
2019-05-19T11:36:06.174Z,39.91
2019-05-19T11:38:41.392Z,38.93
2019-05-19T11:41:15.096Z,37.60
2019-05-19T11:44:14.735Z,36.96
2019-05-19T11:46:49.300Z,36.83
2019-05-19T11:49:24.861Z,37.94
2019-05-19T11:52:04.963Z,37.17
2019-05-19T11:54:41.182Z,35.80
2019-05-19T11:57:32.251Z,34.27
2019-05-19T12:00:06.524Z,35.53
2019-05-19T12:03:03.609Z,35.74
2019-05-19T12:05:37.756Z,35.98
2019-05-19T12:08:21.227Z,38.05
2019-05-19T12:10:53.195Z,37.83
2019-05-19T12:13:25.997Z,38.85
2019-05-19T12:15:58.265Z,38.82
2019-05-19T12:18:32.396Z,39.07
2019-05-19T12:21:04.871Z,38.40
2019-05-19T12:23:35.584Z,37.94
2019-05-19T12:26:22.212Z,38.83
2019-05-19T12:28:42.592Z,39.99
2019-05-19T12:31:17.110Z,39.88
2019-05-19T12:33:52.471Z,41.30
2019-05-19T12:36:25.080Z,41.65
2019-05-19T12:38:55.526Z,41.53
2019-05-19T12:41:40.847Z,40.58
2019-05-19T12:44:15.611Z,41.05
2019-05-19T12:46:49.556Z,40.13
2019-05-19T12:49:31.970Z,41.13
2019-05-19T12:52:07.180Z,41.87
2019-05-19T12:54:39.309Z,42.28
2019-05-19T12:57:12.244Z,41.61
2019-05-19T12:59:42.986Z,41.76
2019-05-19T13:02:13.387Z,41.66
2019-05-19T13:04:44.093Z,41.10
2019-05-19T13:07:15.178Z,41.76
2019-05-19T13:09:45.648Z,42.34
2019-05-19T13:12:19.140Z,42.69
2019-05-19T13:14:54.313Z,42.83
2019-05-19T13:17:24.707Z,42.21
2019-05-19T13:19:55.234Z,42.52
2019-05-19T13:22:34.284Z,42.38
2019-05-19T13:25:10.101Z,41.83
2019-05-19T13:27:41.391Z,43.24
2019-05-19T13:30:12.028Z,42.78
2019-05-19T13:32:42.999Z,41.89
2019-05-19T13:35:13.485Z,42.25
2019-05-19T13:37:43.935Z,42.55
2019-05-19T13:40:14.361Z,42.43
2019-05-19T13:42:46.302Z,42.75
2019-05-19T13:45:17.115Z,42.67
2019-05-19T13:47:47.899Z,41.24
2019-05-19T13:50:25.586Z,42.19
2019-05-19T13:52:59.203Z,42.44
2019-05-19T13:55:30.112Z,40.82
2019-05-19T13:58:03.446Z,41.61
2019-05-19T14:00:32.935Z,41.49
2019-05-19T14:03:03.402Z,39.41
2019-05-19T14:05:33.813Z,42.68
2019-05-19T14:08:07.014Z,41.40
2019-05-19T14:10:41.682Z,40.88
2019-05-19T14:13:12.113Z,39.48
2019-05-19T14:15:53.561Z,40.31
2019-05-19T14:18:27.652Z,40.22
2019-05-19T14:20:58.097Z,42.89
2019-05-19T14:23:29.651Z,40.60
2019-05-19T14:26:00.498Z,38.69
2019-05-19T14:28:32.092Z,38.69
2019-05-19T14:31:02.773Z,39.24
2019-05-19T14:33:34.242Z,36.85
2019-05-19T14:36:06.251Z,40.11
2019-05-19T14:38:39.658Z,36.73
2019-05-19T14:41:10.494Z,38.09
2019-05-19T14:43:44.107Z,37.87
2019-05-19T14:46:14.671Z,36.95
2019-05-19T14:48:46.754Z,38.25
2019-05-19T14:51:22.039Z,37.93
2019-05-19T14:53:57.411Z,38.71
2019-05-19T14:56:28.071Z,38.68
2019-05-19T14:59:01.507Z,37.75
2019-05-19T15:01:36.596Z,38.14
2019-05-19T15:04:19.288Z,34.84
2019-05-19T15:06:53.005Z,37.10
2019-05-19T15:09:33.660Z,36.20
2019-05-19T15:12:10.565Z,36.56
2019-05-19T15:14:41.188Z,35.78
2019-05-19T15:17:20.093Z,35.76
2019-05-19T15:19:51.164Z,36.30
2019-05-19T15:22:27.133Z,35.35
2019-05-19T15:24:59.075Z,36.04
2019-05-19T15:27:32.971Z,35.84
2019-05-19T15:30:13.277Z,34.25
2019-05-19T15:32:42.621Z,35.72
2019-05-19T15:35:16.502Z,34.64
2019-05-19T15:37:52.641Z,35.62
2019-05-19T15:40:23.308Z,36.96
2019-05-19T15:42:54.331Z,35.64
2019-05-19T15:45:25.516Z,36.72
2019-05-19T15:48:02.706Z,35.58
2019-05-19T15:50:33.835Z,38.91
2019-05-19T15:53:04.656Z,38.83
2019-05-19T15:55:35.305Z,39.18
2019-05-19T15:58:16.447Z,41.47
2019-05-19T16:01:00.286Z,41.26
2019-05-19T16:03:31.094Z,41.17
2019-05-19T16:06:02.101Z,43.50
2019-05-19T16:08:34.491Z,42.58
2019-05-19T16:11:10.276Z,42.08
2019-05-19T16:13:40.759Z,43.78
2019-05-19T16:16:14.525Z,43.87
2019-05-19T16:19:04.090Z,44.62
2019-05-19T16:21:34.542Z,44.15
2019-05-19T16:24:08.079Z,44.05
2019-05-19T16:26:55.624Z,44.02
2019-05-19T16:29:33.852Z,44.51
2019-05-19T16:32:08.451Z,46.80
2019-05-19T16:34:41.223Z,45.96
2019-05-19T16:37:37.520Z,47.71
2019-05-19T16:40:12.406Z,47.10
2019-05-19T16:43:15.785Z,50.39
2019-05-19T16:45:48.898Z,58.91
2019-05-19T16:48:19.378Z,64.33
2019-05-19T16:50:49.836Z,62.34
2019-05-19T16:53:25.164Z,65.37
2019-05-19T16:55:55.262Z,61.54
2019-05-19T16:58:44.512Z,62.82
2019-05-19T17:01:04.420Z,67.31
2019-05-19T17:03:36.781Z,67.16
2019-05-19T17:06:08.705Z,68.48
2019-05-19T17:08:39.131Z,70.04
2019-05-19T17:11:17.942Z,71.24
2019-05-19T17:13:42.386Z,73.60
2019-05-19T17:16:17.092Z,75.70
2019-05-19T17:18:49.083Z,76.25
2019-05-19T17:21:24.109Z,76.10
2019-05-19T17:23:57.630Z,75.56
2019-05-19T17:26:30.093Z,74.44
2019-05-19T17:29:01.184Z,74.38
2019-05-19T17:31:43.204Z,74.80
2019-05-19T17:34:13.885Z,75.68
2019-05-19T17:36:53.947Z,76.16
2019-05-19T17:39:35.100Z,79.11
2019-05-19T17:42:09.088Z,80.37
2019-05-19T17:44:42.689Z,78.36
2019-05-19T17:47:14.332Z,80.74
2019-05-19T17:49:46.547Z,79.75
2019-05-19T17:52:17.077Z,80.65
2019-05-19T17:54:50.358Z,81.16
2019-05-19T17:57:25.007Z,80.90
2019-05-19T17:59:57.643Z,82.74
2019-05-19T18:02:32.865Z,83.00
2019-05-19T18:05:06.872Z,83.20
2019-05-19T18:07:40.586Z,83.06
2019-05-19T18:10:13.292Z,82.71
2019-05-19T18:12:50.987Z,82.61
2019-05-19T18:15:23.301Z,83.13
2019-05-19T18:17:58.622Z,85.60
2019-05-19T18:20:29.362Z,85.84
2019-05-19T18:23:03.779Z,85.58
2019-05-19T18:25:34.333Z,84.82
2019-05-19T18:28:05.582Z,84.33
2019-05-19T18:30:37.937Z,85.22
2019-05-19T18:36:19.463Z,85.27
2019-05-19T18:38:50.678Z,84.59
2019-05-19T18:41:25.536Z,85.19
2019-05-19T18:43:56.042Z,85.67
2019-05-19T18:46:40.795Z,86.17
2019-05-19T18:49:11.238Z,86.09
2019-05-19T18:51:44.254Z,85.49
2019-05-19T18:54:16.290Z,85.79
2019-05-19T18:56:46.698Z,86.37
2019-05-19T18:59:27.177Z,87.24
2019-05-19T19:02:00.691Z,87.62
2019-05-19T19:04:34.315Z,87.71
2019-05-19T19:07:07.934Z,88.98
2019-05-19T19:09:54.903Z,89.59
2019-05-19T19:12:32.248Z,88.71
2019-05-19T19:15:11.023Z,88.67
2019-05-19T19:17:46.250Z,88.40
2019-05-19T19:20:19.814Z,88.94
2019-05-19T19:22:53.756Z,90.32
2019-05-19T19:25:26.976Z,90.98
2019-05-19T19:27:59.392Z,89.21
2019-05-19T19:30:33.891Z,91.42
2019-05-19T19:33:04.573Z,91.23
2019-05-19T19:35:39.102Z,91.42
2019-05-19T19:38:13.290Z,92.01
2019-05-19T19:40:44.204Z,91.29
2019-05-19T19:43:35.090Z,92.76
2019-05-19T19:46:02.378Z,92.83
2019-05-19T19:48:39.039Z,92.53
2019-05-19T19:51:27.589Z,93.48
2019-05-19T19:53:58.782Z,91.67
2019-05-19T19:56:30.827Z,92.46
2019-05-19T19:59:09.120Z,91.97
2019-05-19T20:01:42.614Z,93.21
2019-05-19T20:04:16.745Z,92.11
2019-05-19T20:06:48.064Z,93.27
2019-05-19T20:09:21.305Z,93.44
2019-05-19T20:12:10.881Z,92.93
2019-05-19T20:14:46.496Z,93.45
2019-05-19T20:17:24.601Z,92.78
2019-05-19T20:20:16.089Z,92.83
2019-05-19T20:22:55.263Z,93.51
2019-05-19T20:25:25.799Z,93.75
2019-05-19T20:27:59.503Z,93.40
2019-05-19T20:30:35.582Z,93.70
2019-05-19T20:33:02.960Z,92.74
2019-05-19T20:35:34.541Z,93.54
2019-05-19T20:40:58.985Z,92.86
2019-05-19T20:43:31.328Z,92.91
2019-05-19T20:46:05.442Z,94.38
2019-05-19T20:48:38.133Z,94.42
2019-05-19T20:51:12.091Z,95.53
2019-05-19T20:53:49.315Z,95.74
2019-05-19T20:56:20.404Z,94.41
2019-05-19T20:58:52.290Z,94.50
2019-05-19T21:01:23.145Z,93.51
2019-05-19T21:03:55.320Z,94.11
2019-05-19T21:06:31.206Z,95.23
2019-05-19T21:09:02.007Z,95.41
2019-05-19T21:11:35.076Z,95.25
2019-05-19T21:14:10.258Z,95.87
2019-05-19T21:16:41.685Z,96.25
2019-05-19T21:19:14.121Z,95.36
2019-05-19T21:21:52.876Z,95.36
2019-05-19T21:24:28.675Z,95.90
2019-05-19T21:27:00.373Z,95.37
2019-05-19T21:29:32.095Z,95.53
2019-05-19T21:32:05.004Z,96.08
2019-05-19T21:34:38.701Z,95.82
2019-05-19T21:37:09.393Z,95.47
2019-05-19T21:39:42.825Z,95.73
2019-05-19T21:42:15.810Z,96.06
2019-05-19T21:44:48.392Z,95.88
2019-05-19T21:47:39.031Z,95.04
2019-05-19T21:50:11.414Z,95.10
2019-05-19T21:52:42.310Z,95.00
2019-05-19T21:55:13.611Z,96.06
2019-05-19T21:57:44.485Z,95.90
2019-05-19T22:00:25.834Z,96.40
2019-05-19T22:03:15.218Z,96.34
2019-05-19T22:05:53.703Z,96.48
2019-05-19T22:08:25.622Z,96.97
2019-05-19T22:11:04.871Z,96.74
2019-05-19T22:13:35.754Z,96.42
2019-05-19T22:16:25.396Z,96.65
2019-05-19T22:18:59.536Z,96.41
2019-05-19T22:21:30.396Z,97.28
2019-05-19T22:24:01.135Z,97.96
2019-05-19T22:26:32.025Z,97.32
2019-05-19T22:29:03.087Z,97.33
2019-05-19T22:31:36.930Z,96.08
2019-05-19T22:34:36.716Z,96.82
2019-05-19T22:37:07.544Z,95.72
2019-05-19T22:39:38.272Z,95.94
2019-05-19T22:42:10.345Z,96.55
2019-05-19T22:44:41.228Z,97.13
2019-05-19T22:47:14.899Z,96.99
2019-05-19T22:49:48.247Z,95.69
2019-05-19T22:52:19.024Z,97.16
2019-05-19T22:54:54.569Z,97.32
2019-05-19T22:57:25.412Z,97.07
2019-05-19T22:59:59.324Z,97.88
2019-05-19T23:02:34.698Z,97.70
2019-05-19T23:05:07.271Z,97.52
2019-05-19T23:07:44.751Z,97.41
2019-05-19T23:10:18.172Z,98.02
2019-05-19T23:12:53.067Z,97.99
2019-05-19T23:15:24.386Z,98.13
2019-05-19T23:17:56.795Z,98.44
2019-05-19T23:20:33.078Z,98.36
2019-05-19T23:23:06.379Z,98.98
2019-05-19T23:25:38.861Z,97.84
2019-05-19T23:28:11.976Z,98.61
2019-05-19T23:30:45.084Z,98.81
2019-05-19T23:33:17.041Z,98.27
2019-05-19T23:35:50.292Z,98.70
2019-05-19T23:38:21.024Z,97.98
2019-05-19T23:40:52.347Z,98.70
2019-05-19T23:43:26.042Z,98.94
2019-05-19T23:45:56.424Z,98.77
2019-05-19T23:48:27.297Z,98.44
2019-05-19T23:50:57.809Z,98.71
2019-05-19T23:53:29.162Z,98.93
2019-05-19T23:55:59.596Z,99.49
2019-05-19T23:58:31.611Z,99.11
